createdAt,value
2023-03-22T00:03:13.880Z,99457.34
2023-03-22T00:08:16.790Z,99453.81
2023-03-22T00:13:19.868Z,99446.86
2023-03-22T00:18:22.842Z,99448.06
2023-03-22T00:23:26.921Z,99452.41
2023-03-22T00:28:29.874Z,99455.02
2023-03-22T00:33:33.662Z,99452.45
2023-03-22T00:38:44.077Z,99455.84
2023-03-22T00:43:48.880Z,99453.89
2023-03-22T00:48:52.010Z,99441.03
2023-03-22T00:53:54.991Z,99438.89
2023-03-22T00:58:57.916Z,99429.38
2023-03-22T01:04:00.914Z,99419.27
2023-03-22T01:09:05.075Z,99415.40
2023-03-22T01:14:09.900Z,99414.45
2023-03-22T01:19:12.822Z,99416.80
2023-03-22T01:24:16.802Z,99417.38
2023-03-22T01:29:19.791Z,99409.79
2023-03-22T01:34:23.122Z,99403.31
2023-03-22T01:39:27.361Z,99401.98
2023-03-22T01:44:31.670Z,99402.45
2023-03-22T01:49:35.833Z,99398.84
2023-03-22T01:54:43.620Z,99393.11
2023-03-22T01:59:48.051Z,99395.33
2023-03-22T02:04:51.077Z,99392.98
2023-03-22T02:09:54.565Z,99384.73
2023-03-22T02:15:09.511Z,99382.73
2023-03-22T02:20:47.880Z,99370.23
2023-03-22T02:26:39.379Z,99367.14
2023-03-22T02:31:47.319Z,99364.52
2023-03-22T02:37:23.567Z,99365.45
2023-03-22T02:42:49.095Z,99364.77
2023-03-22T02:47:58.833Z,99363.04
2023-03-22T02:53:19.511Z,99360.79
2023-03-22T02:58:50.436Z,99361.20
2023-03-22T03:04:00.066Z,99360.42
2023-03-22T03:09:05.160Z,99361.41
2023-03-22T03:14:20.956Z,99361.23
2023-03-22T03:19:35.417Z,99360.91
2023-03-22T03:25:09.465Z,99355.83
2023-03-22T03:30:19.823Z,99355.30
2023-03-22T03:35:29.839Z,99355.45
2023-03-22T03:40:37.734Z,99356.86
2023-03-22T03:45:44.513Z,99355.18
2023-03-22T03:50:51.029Z,99355.77
2023-03-22T03:55:54.214Z,99352.01
2023-03-22T04:00:57.236Z,99351.66
2023-03-22T04:06:00.253Z,99343.95
2023-03-22T04:11:03.207Z,99338.91
2023-03-22T04:16:07.245Z,99343.97
2023-03-22T04:21:12.260Z,99350.20
2023-03-22T04:26:15.404Z,99349.38
2023-03-22T04:31:18.587Z,99354.02
2023-03-22T04:36:23.834Z,99356.45
2023-03-22T04:41:26.746Z,99357.57
2023-03-22T04:46:35.993Z,99360.86
2023-03-22T04:51:38.981Z,99362.61
2023-03-22T04:56:42.016Z,99370.00
2023-03-22T05:01:44.979Z,99367.24
2023-03-22T05:06:48.486Z,99365.26
2023-03-22T05:11:51.446Z,99367.30
2023-03-22T05:16:54.455Z,99374.80
2023-03-22T05:21:58.407Z,99372.41
2023-03-22T05:27:01.560Z,99366.89
2023-03-22T05:32:04.654Z,99370.20
2023-03-22T05:37:07.625Z,99363.86
2023-03-22T05:42:10.709Z,99364.77
2023-03-22T05:47:13.747Z,99365.50
2023-03-22T05:52:16.799Z,99366.66
2023-03-22T05:57:19.751Z,99366.30
2023-03-22T06:02:23.072Z,99371.17
2023-03-22T06:07:26.621Z,99378.78
2023-03-22T06:12:30.269Z,99375.39
2023-03-22T06:17:33.260Z,99374.23
2023-03-22T06:22:36.309Z,99377.19
2023-03-22T06:27:39.241Z,99376.52
2023-03-22T06:32:42.198Z,99381.26
2023-03-22T06:37:45.139Z,99386.22
2023-03-22T06:42:48.641Z,99380.95
2023-03-22T06:47:51.647Z,99381.76
2023-03-22T06:52:55.120Z,99381.52
2023-03-22T06:57:58.072Z,99384.19
2023-03-22T07:03:01.457Z,99383.38
2023-03-22T07:08:04.455Z,99385.52
2023-03-22T07:13:07.393Z,99382.13
2023-03-22T07:18:10.684Z,99376.98
2023-03-22T07:23:13.785Z,99368.66
2023-03-22T07:28:16.854Z,99365.39
2023-03-22T07:33:19.837Z,99365.29
2023-03-22T07:38:22.820Z,99361.01
2023-03-22T07:43:25.790Z,99364.17
2023-03-22T07:48:31.242Z,99362.15
2023-03-22T07:53:34.922Z,99363.55
2023-03-22T07:58:37.855Z,99360.47
2023-03-22T08:03:40.865Z,99360.70
2023-03-22T08:08:43.805Z,99365.04
2023-03-22T08:13:46.785Z,99363.11
2023-03-22T08:18:49.758Z,99358.55
2023-03-22T08:23:53.013Z,99353.33
2023-03-22T08:28:57.104Z,99350.17
2023-03-22T08:34:00.141Z,99342.71
2023-03-22T08:39:04.056Z,99336.91
2023-03-22T08:44:07.220Z,99335.26
2023-03-22T08:49:10.653Z,99335.05
2023-03-22T08:54:13.814Z,99331.66
2023-03-22T08:59:16.772Z,99322.80
2023-03-22T09:04:19.778Z,99320.23
2023-03-22T09:09:22.782Z,99313.09
2023-03-22T09:14:25.961Z,99310.02
2023-03-22T09:19:29.007Z,99311.20
2023-03-22T09:24:31.932Z,99310.11
2023-03-22T09:29:35.008Z,99306.25
2023-03-22T09:34:37.929Z,99311.55
2023-03-22T09:39:41.901Z,99306.80
2023-03-22T09:44:46.713Z,99303.00
2023-03-22T09:50:00.830Z,99298.63
2023-03-22T09:55:14.156Z,99302.74
2023-03-22T10:00:40.579Z,99297.78
2023-03-22T10:05:51.466Z,99294.95
2023-03-22T10:10:54.610Z,99293.34
2023-03-22T10:16:02.961Z,99287.38
2023-03-22T10:21:12.609Z,99280.92
2023-03-22T10:26:29.506Z,99272.06
2023-03-22T10:31:34.202Z,99268.13
2023-03-22T10:36:40.248Z,99265.95
2023-03-22T10:41:45.476Z,99265.36
2023-03-22T10:46:49.743Z,99258.61
2023-03-22T10:51:58.297Z,99251.71
2023-03-22T10:57:01.245Z,99242.05
2023-03-22T11:02:04.511Z,99248.57
2023-03-22T11:07:26.094Z,99244.42
2023-03-22T11:12:29.407Z,99234.98
2023-03-22T11:17:33.257Z,99225.38
2023-03-22T11:22:48.207Z,99213.48
2023-03-22T11:28:05.982Z,99201.69
2023-03-22T11:33:08.948Z,99194.11
2023-03-22T11:38:41.966Z,99186.96
2023-03-22T11:43:48.581Z,99178.97
2023-03-22T11:49:01.577Z,99172.38
2023-03-22T11:54:36.492Z,99172.02
2023-03-22T11:59:48.234Z,99172.56
2023-03-22T12:05:01.895Z,99168.48
2023-03-22T12:10:41.082Z,99163.45
2023-03-22T12:15:51.807Z,99164.66
2023-03-22T12:20:58.287Z,99160.23
2023-03-22T12:26:11.657Z,99159.43
2023-03-22T12:31:44.547Z,99157.95
2023-03-22T12:36:56.233Z,99159.24
2023-03-22T12:42:10.962Z,99147.39
2023-03-22T12:47:20.385Z,99154.07
2023-03-22T12:52:34.858Z,99150.10
2023-03-22T12:57:44.813Z,99153.14
2023-03-22T13:02:59.355Z,99151.63
2023-03-22T13:08:05.541Z,99142.84
2023-03-22T13:13:24.298Z,99140.88
2023-03-22T13:18:36.422Z,99132.80
2023-03-22T13:24:10.375Z,99126.35
2023-03-22T13:29:20.968Z,99120.20
2023-03-22T13:34:49.243Z,99106.83
2023-03-22T13:39:52.420Z,99097.42
2023-03-22T13:45:00.139Z,99088.23
2023-03-22T13:50:28.491Z,99083.55
2023-03-22T13:55:46.499Z,99080.86
2023-03-22T14:00:55.415Z,99074.52
2023-03-22T14:06:23.823Z,99068.81
2023-03-22T14:11:38.142Z,99063.81
2023-03-22T14:16:50.809Z,99059.31
